Archival Weather

Salzburg

Salzburg, Austria (LOWS)

Report from: Friday, May 26, 2023 7:20 AM CEST
Current time: Wednesday, May 29, 2024 10:58 AM CEST

Current weather – Weather history – Daily summaries
Weather forecast

Temperature13.0°C (55.4°F)
Dew point12.0°C (53.6°F)
Winds 2 kts (1 m/s, 2.3 mph) Vrb
Winds variableWinds variable
Visibility6.2 mi. (10 km)
Clouds Few clouds 6,000 ft. (1,829 m)
Altimeter30.21 in.Hg (1023 mB)
Relative humidity94 %
Density altitude-371 ft. (-113 m)
Remarks Fully automated report
No significant changes expected in the next two hours
Flight conditions Visual Meteorological Conditions
Raw dataLOWS 260520Z AUTO VRB02KT 9999 FEW060 13/12 Q1023 NOSIG
An error has occurred. This application may no longer respond until reloaded. Reload 🗙